»·PEaware :: AAL380 KGJT-KASE

AAL380 :: KGJT-KASE

FLIGHT INFORMATION

Flight Status: Arrived
Operator:
American Airlines
More flights by this operator :: More flights under this callsign
Pilot: Sergei F. (8485)
Aircraft: BOEING 737-300
(B733)
More flights by this aircraft type
Origin: KGJT Walker
United States
Destination: KASE Aspen-Pitkin Co/Sardy
United States
More flights between these airports :: More routes between these airports
Route: JNC7 PACES V134 LINDZ
File this flight plan on PilotEdge
Remarks:
Altitude:
(Current/Filed)
16,000ft
Speed:
(Current/Filed)
250kts
Departed: 08-Dec-17 04:38 PM
Arrived: 08-Dec-17 05:09 PM
Distance/Time
Traveled:
649nm/0:31
Distance/Time
To Go:
Arrived

Flight Plot

Page will automatically refresh every two minutes.

Flight plan parsing failed; only flown route is shown


Map Options




Map Legend


Flown Route
Filed Route
Departure Airport
Arrival Airport
Navaid (VOR, NDB)
Fix

Horizontal Profiles

Position Reports

Time Latitude Longitude Heading Altitude Ground
Speed
08-Dec-17 16:22 39.123293 -108.528946 213 4834ft 0kts
08-Dec-17 16:23 39.123293 -108.528946 213 4834ft 0kts
08-Dec-17 16:24 39.123293 -108.528946 213 4834ft 0kts
08-Dec-17 16:25 39.123293 -108.528946 213 4834ft 0kts
08-Dec-17 16:26 39.123293 -108.528946 213 4834ft 0kts
08-Dec-17 16:27 39.123293 -108.528946 213 4834ft 0kts
08-Dec-17 16:28 39.123293 -108.528946 213 4834ft 0kts
08-Dec-17 16:29 39.123293 -108.528946 213 4834ft 0kts
08-Dec-17 16:30 39.123293 -108.528946 213 4834ft 0kts
08-Dec-17 16:31 39.123293 -108.528946 213 4834ft 0kts
08-Dec-17 16:32 39.123293 -108.528946 213 4834ft 0kts
08-Dec-17 16:33 39.123293 -108.528946 213 4834ft 0kts
08-Dec-17 16:34 39.123724 -108.528564 214 4837ft 0kts
08-Dec-17 16:35 39.123923 -108.528385 132 4839ft 0kts
08-Dec-17 16:36 39.123923 -108.528385 132 4839ft 0kts
08-Dec-17 16:37 39.123732 -108.528083 125 4839ft 4kts
08-Dec-17 16:38 39.122909 -108.526132 69 4843ft 7kts
08-Dec-17 16:39 39.122174 -108.523475 124 4848ft 14kts
08-Dec-17 16:40 39.119393 -108.518409 124 4848ft 18kts
08-Dec-17 16:41 39.118247 -108.516336 125 4850ft 2kts
08-Dec-17 16:42 39.118606 -108.514652 335 4853ft 4kts
08-Dec-17 16:43 39.124510 -108.525338 304 4877ft 144kts
08-Dec-17 16:44 39.141850 -108.569009 256 6244ft 152kts
08-Dec-17 16:45 39.127117 -108.621266 249 6510ft 162kts
08-Dec-17 16:46 39.104368 -108.683403 248 8330ft 215kts
08-Dec-17 16:47 39.076844 -108.754500 248 11183ft 235kts
08-Dec-17 16:48 39.052884 -108.834031 268 14056ft 242kts
08-Dec-17 16:49 39.074124 -108.897976 7 16025ft 217kts
08-Dec-17 16:50 39.079292 -108.830901 121 16014ft 261kts
08-Dec-17 16:51 39.069753 -108.751030 69 16005ft 235kts
08-Dec-17 16:52 39.086767 -108.668587 68 15970ft 251kts
08-Dec-17 16:53 39.105962 -108.570854 70 15983ft 296kts
08-Dec-17 16:54 39.130166 -108.455572 69 15976ft 352kts
08-Dec-17 16:56 39.154518 -108.339093 72 16020ft 346kts
08-Dec-17 16:57 39.177845 -108.220362 70 16000ft 342kts
08-Dec-17 16:58 39.201816 -108.102710 71 16009ft 342kts
08-Dec-17 16:59 39.225100 -107.987237 71 16015ft 342kts
08-Dec-17 17:00 39.248789 -107.869221 70 16029ft 342kts
08-Dec-17 17:01 39.272457 -107.751250 70 16021ft 342kts
08-Dec-17 17:02 39.295877 -107.633148 70 16021ft 342kts
08-Dec-17 17:03 39.319204 -107.515024 70 16020ft 342kts
08-Dec-17 17:04 39.342447 -107.397144 70 16009ft 342kts
08-Dec-17 17:05 39.364008 -107.285656 70 16027ft 295kts
08-Dec-17 17:06 39.382026 -107.193122 70 15296ft 255kts
08-Dec-17 17:07 39.417340 -107.123157 38 13988ft 225kts
08-Dec-17 17:08 39.458851 -107.072723 38 14030ft 201kts
08-Dec-17 17:09 39.486521 -107.014408 110 14032ft 231kts
08-Dec-17 17:10 39.430588 -106.968417 153 13672ft 237kts
08-Dec-17 17:11 39.376418 -106.941543 161 12962ft 188kts
08-Dec-17 17:12 39.329220 -106.919460 161 11549ft 172kts
08-Dec-17 17:13 39.285783 -106.898622 161 9725ft 165kts
08-Dec-17 17:14 39.245354 -106.879093 163 8010ft 145kts
08-Dec-17 17:15 39.217621 -106.866008 159 7786ft 22kts
08-Dec-17 17:16 39.217303 -106.864649 358 7792ft 5kts
08-Dec-17 17:17 39.218235 -106.864137 68 7786ft 0kts
08-Dec-17 17:25 36.587687 -121.850534 232 183ft 0kts
08-Dec-17 17:26 36.587687 -121.850534 232 183ft 0kts
08-Dec-17 17:27 36.587687 -121.850534 232 183ft 0kts
08-Dec-17 17:28 36.587687 -121.850534 232 183ft 0kts
08-Dec-17 17:28 36.587687 -121.850534 232 183ft 0kts

Navigation Log

Ident Type
Flight plan parsing failed, navigation log unavailable